North Amherst, Massachusetts
Current Conditions -  °F | °C
As of 1:16 AM on Sunday 21 Dec 2014 (Local Time) from KCEF Reporting Station
Overcast Overcast  
Wind Chill: 26°   Ceiling: 3200
Heat Index: 32°   Visibility: 10mi
Dew Point: 28°   Wind: 6mph
Humidity: 87%   Direction: 350°N
Pressure: 30.27"   Gusts: NA
Location:  42.41°N, 72.53°W
Report Text: KCEF 210616Z AUTO 35005KT 10SM SCT024 OVC032 00/M02 A3027 RMK AO2
Loading
Personal Weather Stations






























Interactive Weather Map New forecast layout! Learn more

10-Day Weather Forecast

Advertisements
Track Severe Weather on mobile